createdAt,value
2022-10-25T00:00:49.300Z,26.60
2022-10-25T00:03:18.620Z,28.23
2022-10-25T00:05:46.457Z,26.50
2022-10-25T00:08:14.309Z,25.97
2022-10-25T00:10:42.158Z,27.27
2022-10-25T00:13:10.008Z,24.53
2022-10-25T00:15:37.828Z,23.23
2022-10-25T00:18:05.840Z,23.90
2022-10-25T00:20:37.088Z,24.17
2022-10-25T00:23:04.932Z,25.17
2022-10-25T00:25:32.763Z,25.60
2022-10-25T00:28:00.660Z,24.47
2022-10-25T00:30:28.630Z,25.93
2022-10-25T00:32:56.466Z,25.30
2022-10-25T00:35:24.585Z,26.03
2022-10-25T00:37:53.802Z,24.27
2022-10-25T00:40:21.699Z,24.37
2022-10-25T00:42:49.715Z,24.23
2022-10-25T00:45:23.091Z,22.30
2022-10-25T00:47:57.486Z,21.97
2022-10-25T00:50:47.046Z,21.90
2022-10-25T00:53:21.561Z,20.50
2022-10-25T00:55:55.418Z,20.73
2022-10-25T00:58:29.222Z,20.23
2022-10-25T01:00:57.737Z,20.73
2022-10-25T01:03:26.303Z,20.57
2022-10-25T01:05:54.944Z,20.10
2022-10-25T01:08:25.131Z,21.53
2022-10-25T01:10:52.953Z,21.53
2022-10-25T01:13:20.881Z,23.57
2022-10-25T01:15:58.084Z,19.97
2022-10-25T01:18:35.143Z,19.93
2022-10-25T01:21:23.464Z,20.00
2022-10-25T01:24:16.263Z,22.87
2022-10-25T01:27:11.757Z,22.20
2022-10-25T01:30:04.736Z,23.67
2022-10-25T01:32:41.351Z,21.70
2022-10-25T01:35:17.356Z,23.30
2022-10-25T01:38:07.344Z,23.43
2022-10-25T01:40:44.061Z,23.60
2022-10-25T01:43:21.184Z,22.50
2022-10-25T01:45:58.357Z,22.23
2022-10-25T01:48:32.792Z,23.93
2022-10-25T01:51:06.972Z,23.90
2022-10-25T01:53:34.855Z,23.13
2022-10-25T01:56:06.600Z,23.70
2022-10-25T01:58:43.911Z,23.63
2022-10-25T02:01:24.842Z,24.17
2022-10-25T02:04:01.031Z,22.70
2022-10-25T02:06:35.822Z,23.00
2022-10-25T02:09:07.905Z,23.80
2022-10-25T02:11:36.785Z,23.53
2022-10-25T02:14:16.252Z,24.40
2022-10-25T02:16:50.518Z,23.60
2022-10-25T02:19:24.750Z,24.00
2022-10-25T02:21:53.973Z,24.93
2022-10-25T02:24:24.168Z,23.87
2022-10-25T02:26:53.731Z,23.73
2022-10-25T02:29:23.887Z,24.37
2022-10-25T02:31:51.938Z,23.37
2022-10-25T02:34:21.467Z,22.33
2022-10-25T02:36:49.920Z,23.07
2022-10-25T02:39:18.672Z,22.73
2022-10-25T02:41:46.518Z,22.67
2022-10-25T02:44:14.720Z,22.33
2022-10-25T02:46:42.604Z,23.63
2022-10-25T02:49:10.504Z,23.67
2022-10-25T02:51:39.977Z,23.43
2022-10-25T02:54:07.854Z,23.13
2022-10-25T02:56:35.692Z,22.93
2022-10-25T02:59:03.544Z,22.17
2022-10-25T03:01:31.514Z,22.17
2022-10-25T03:03:59.539Z,22.57
2022-10-25T03:06:27.339Z,23.57
2022-10-25T03:08:56.528Z,23.40
2022-10-25T03:11:24.380Z,22.23
2022-10-25T03:13:52.211Z,23.97
2022-10-25T03:16:20.059Z,23.77
2022-10-25T03:18:48.033Z,22.60
2022-10-25T03:21:15.866Z,23.50
2022-10-25T03:23:43.657Z,22.80
2022-10-25T03:26:12.880Z,22.83
2022-10-25T03:28:40.739Z,23.17
2022-10-25T03:31:13.161Z,22.53
2022-10-25T03:33:41.695Z,23.43
2022-10-25T03:36:10.091Z,23.87
2022-10-25T03:38:38.100Z,24.53
2022-10-25T03:41:06.261Z,26.27
2022-10-25T03:43:35.462Z,27.67
2022-10-25T03:46:03.426Z,23.97
2022-10-25T03:48:31.311Z,25.70
2022-10-25T03:50:59.248Z,24.90
2022-10-25T03:53:27.088Z,22.60
2022-10-25T03:55:54.924Z,25.97
2022-10-25T03:58:22.795Z,23.10
2022-10-25T04:00:52.025Z,23.53
2022-10-25T04:03:19.927Z,26.70
2022-10-25T04:05:47.752Z,26.20
2022-10-25T04:08:15.637Z,25.77
2022-10-25T04:10:43.483Z,26.10
2022-10-25T04:13:11.321Z,24.00
2022-10-25T04:15:39.245Z,24.40
2022-10-25T04:18:08.606Z,24.33
2022-10-25T04:20:36.464Z,23.93
2022-10-25T04:23:04.320Z,24.93
2022-10-25T04:25:32.369Z,26.13
2022-10-25T04:28:00.620Z,25.10
2022-10-25T04:30:28.633Z,23.33
2022-10-25T04:32:58.296Z,23.47
2022-10-25T04:35:27.507Z,23.37
2022-10-25T04:37:58.317Z,24.00
2022-10-25T04:40:26.457Z,22.47
2022-10-25T04:42:54.319Z,24.03
2022-10-25T04:45:22.158Z,23.10
2022-10-25T04:47:49.975Z,23.67
2022-10-25T04:50:18.002Z,26.60
2022-10-25T04:52:47.609Z,26.13
2022-10-25T04:55:15.794Z,27.20
2022-10-25T04:57:44.684Z,28.90
2022-10-25T05:00:13.496Z,26.67
2022-10-25T05:02:41.354Z,26.70
2022-10-25T05:05:09.976Z,27.83
2022-10-25T05:07:37.824Z,24.30
2022-10-25T05:10:07.672Z,24.03
2022-10-25T05:12:35.527Z,23.93
2022-10-25T05:15:03.414Z,21.93
2022-10-25T05:17:31.324Z,24.00
2022-10-25T05:19:59.319Z,23.43
2022-10-25T05:22:29.256Z,23.97
2022-10-25T05:24:57.116Z,26.30
2022-10-25T05:27:26.465Z,24.03
2022-10-25T05:29:54.325Z,24.33
2022-10-25T05:32:22.218Z,24.53
2022-10-25T05:34:50.051Z,23.17
2022-10-25T05:37:17.922Z,19.67
2022-10-25T05:39:45.853Z,18.57
2022-10-25T05:42:13.676Z,18.97
2022-10-25T05:44:42.884Z,19.20
2022-10-25T05:47:10.794Z,18.60
2022-10-25T05:49:42.337Z,16.93
2022-10-25T05:52:12.363Z,16.77
2022-10-25T05:54:40.251Z,15.73
2022-10-25T05:57:08.085Z,15.57
2022-10-25T05:59:36.015Z,14.93
2022-10-25T06:02:05.353Z,17.20
2022-10-25T06:04:33.341Z,16.57
2022-10-25T06:07:01.232Z,15.67
2022-10-25T06:09:29.168Z,16.20
2022-10-25T06:11:57.021Z,14.87
2022-10-25T06:14:24.856Z,14.90
2022-10-25T06:16:52.712Z,15.33
2022-10-25T06:19:21.961Z,18.60
2022-10-25T06:21:49.893Z,19.20
2022-10-25T06:24:17.768Z,19.57
2022-10-25T06:26:45.642Z,21.27
2022-10-25T06:29:13.681Z,21.20
2022-10-25T06:31:41.694Z,21.80
2022-10-25T06:34:09.644Z,20.97
2022-10-25T06:36:39.024Z,19.70
2022-10-25T06:39:07.165Z,19.83
2022-10-25T06:41:37.686Z,18.80
2022-10-25T06:44:07.197Z,17.13
2022-10-25T06:46:52.602Z,17.13
2022-10-25T06:49:25.303Z,17.35
2022-10-25T06:51:54.782Z,17.17
2022-10-25T06:54:22.646Z,15.88
2022-10-25T06:56:50.622Z,16.42
2022-10-25T06:59:20.389Z,15.20
2022-10-25T07:01:50.080Z,15.02
2022-10-25T07:04:18.185Z,15.05
2022-10-25T07:06:48.806Z,15.38
2022-10-25T07:09:20.922Z,15.07
2022-10-25T07:11:48.767Z,15.48
2022-10-25T07:14:16.776Z,15.60
2022-10-25T07:16:44.717Z,15.73
2022-10-25T07:19:12.763Z,16.10
2022-10-25T07:21:40.615Z,19.48
2022-10-25T07:24:11.140Z,16.95
2022-10-25T07:26:40.918Z,15.98
2022-10-25T07:29:09.163Z,16.85
2022-10-25T07:31:39.672Z,17.15
2022-10-25T07:34:07.915Z,17.42
2022-10-25T07:36:35.782Z,17.52
2022-10-25T07:39:03.915Z,17.77
2022-10-25T07:41:31.837Z,18.38
2022-10-25T07:44:01.039Z,19.35
2022-10-25T07:46:28.933Z,18.17
2022-10-25T07:48:56.819Z,18.73
2022-10-25T07:51:25.068Z,19.83
2022-10-25T07:53:54.449Z,19.23
2022-10-25T07:56:23.681Z,18.42
2022-10-25T07:58:52.275Z,18.20
2022-10-25T08:01:23.806Z,17.50
2022-10-25T08:03:52.536Z,17.58
2022-10-25T08:06:21.781Z,17.08
2022-10-25T08:08:50.146Z,17.15
2022-10-25T08:11:18.925Z,18.15
2022-10-25T08:13:49.850Z,18.77
2022-10-25T08:16:18.367Z,19.85
2022-10-25T08:18:47.603Z,20.15
2022-10-25T08:21:15.556Z,18.70
2022-10-25T08:23:43.451Z,17.85
2022-10-25T08:26:11.429Z,17.17
2022-10-25T08:28:39.265Z,16.88
2022-10-25T08:31:07.287Z,16.92
2022-10-25T08:33:35.343Z,15.80
2022-10-25T08:36:04.812Z,15.75
2022-10-25T08:38:32.664Z,16.38
2022-10-25T08:41:10.205Z,16.25
2022-10-25T08:44:08.851Z,17.25
2022-10-25T08:46:41.942Z,16.40
2022-10-25T08:49:20.323Z,18.05
2022-10-25T08:51:51.758Z,16.45
2022-10-25T08:54:31.873Z,15.90
2022-10-25T08:57:15.446Z,14.10
2022-10-25T08:59:46.744Z,15.63
2022-10-25T09:02:21.064Z,13.95
2022-10-25T09:04:49.117Z,14.60
2022-10-25T09:07:41.969Z,13.30
2022-10-25T09:10:19.345Z,14.15
2022-10-25T09:12:55.285Z,12.65
2022-10-25T09:15:43.252Z,13.77
2022-10-25T09:18:16.926Z,15.07
2022-10-25T09:20:50.824Z,13.48
2022-10-25T09:23:28.011Z,14.48
2022-10-25T09:26:04.100Z,14.50
2022-10-25T09:28:50.596Z,18.63
2022-10-25T09:31:23.360Z,18.95
2022-10-25T09:33:58.890Z,14.48
2022-10-25T09:36:33.059Z,12.95
2022-10-25T09:39:06.884Z,13.60
2022-10-25T09:41:41.221Z,16.30
2022-10-25T09:44:16.829Z,12.95
2022-10-25T09:46:49.129Z,12.73
2022-10-25T09:49:26.119Z,12.25
2022-10-25T09:52:00.731Z,13.40
2022-10-25T09:54:34.007Z,13.73
2022-10-25T09:57:02.114Z,13.65
2022-10-25T09:59:30.089Z,15.27
2022-10-25T10:01:58.094Z,13.65
2022-10-25T10:04:34.193Z,14.05
2022-10-25T10:07:07.484Z,13.57
2022-10-25T10:09:43.356Z,13.85
2022-10-25T10:12:20.672Z,13.30
2022-10-25T10:14:55.069Z,13.18
2022-10-25T10:17:24.299Z,13.38
2022-10-25T10:20:11.295Z,12.93
2022-10-25T10:22:45.622Z,12.95
2022-10-25T10:25:20.860Z,12.73
2022-10-25T10:27:50.476Z,13.45
2022-10-25T10:30:24.895Z,12.60
2022-10-25T10:32:58.756Z,13.18
2022-10-25T10:35:30.899Z,13.45
2022-10-25T10:38:25.029Z,13.68
2022-10-25T10:40:57.635Z,12.38
2022-10-25T10:43:30.054Z,13.57
2022-10-25T10:46:03.939Z,12.93
2022-10-25T10:48:41.888Z,12.85
2022-10-25T10:51:31.673Z,13.10
2022-10-25T10:54:12.676Z,12.70
2022-10-25T10:56:41.953Z,14.07
2022-10-25T10:59:29.359Z,13.52
2022-10-25T11:01:57.593Z,12.25
2022-10-25T11:04:26.389Z,12.73
2022-10-25T11:06:54.309Z,12.77
2022-10-25T11:09:25.437Z,12.80
2022-10-25T11:12:15.484Z,11.70
2022-10-25T11:14:43.939Z,12.48
2022-10-25T11:17:16.995Z,13.48
2022-10-25T11:19:54.467Z,12.07
2022-10-25T11:22:34.744Z,12.18
2022-10-25T11:25:17.394Z,12.00
2022-10-25T11:28:06.398Z,12.20
2022-10-25T11:30:41.192Z,12.18
2022-10-25T11:33:34.854Z,12.70
2022-10-25T11:36:23.975Z,13.43
2022-10-25T11:39:15.108Z,10.57
2022-10-25T11:41:48.717Z,10.40
2022-10-25T11:44:41.697Z,8.45
2022-10-25T11:47:19.321Z,10.32
2022-10-25T11:49:59.638Z,10.40
2022-10-25T11:52:54.450Z,10.25
2022-10-25T11:55:34.257Z,12.13
2022-10-25T11:58:11.382Z,10.27
2022-10-25T12:00:51.259Z,10.85
2022-10-25T12:03:32.485Z,8.10
2022-10-25T12:06:07.041Z,10.52
2022-10-25T12:08:43.019Z,10.30
2022-10-25T12:11:18.726Z,9.77
2022-10-25T12:13:51.626Z,10.60
2022-10-25T12:16:23.087Z,9.35
2022-10-25T12:18:53.714Z,9.10
2022-10-25T12:21:27.169Z,9.15
2022-10-25T12:23:56.186Z,7.90
2022-10-25T12:26:31.075Z,7.28
2022-10-25T12:29:01.747Z,7.75
2022-10-25T12:31:37.779Z,7.57
2022-10-25T12:34:10.216Z,7.55
2022-10-25T12:36:41.738Z,7.70
2022-10-25T12:39:17.615Z,6.13
2022-10-25T12:41:49.936Z,6.20
2022-10-25T12:44:33.868Z,7.15
2022-10-25T12:47:25.570Z,10.18
2022-10-25T12:50:14.706Z,7.07
2022-10-25T12:53:00.660Z,6.72
2022-10-25T12:55:42.005Z,6.90
2022-10-25T12:58:28.093Z,6.57
2022-10-25T13:01:11.215Z,9.13
2022-10-25T13:03:59.552Z,8.65
2022-10-25T13:06:34.653Z,7.15
2022-10-25T13:09:06.768Z,6.80
2022-10-25T13:11:38.321Z,7.20
2022-10-25T13:14:14.011Z,7.32
2022-10-25T13:16:41.843Z,5.78
2022-10-25T13:19:49.889Z,5.85
2022-10-25T13:22:46.824Z,6.68
2022-10-25T13:25:19.638Z,6.40
2022-10-25T13:28:21.361Z,5.93
2022-10-25T13:30:49.264Z,5.90
2022-10-25T13:33:33.763Z,6.53
2022-10-25T13:36:05.951Z,6.57
2022-10-25T13:38:39.644Z,6.68
2022-10-25T13:41:13.259Z,5.85
2022-10-25T13:44:02.220Z,5.35
2022-10-25T13:46:36.367Z,6.28
2022-10-25T13:49:23.410Z,5.28
2022-10-25T13:51:56.152Z,5.50
2022-10-25T13:54:24.804Z,6.30
2022-10-25T13:56:54.600Z,5.78
2022-10-25T13:59:38.612Z,7.10
2022-10-25T14:02:18.443Z,6.22
2022-10-25T14:04:46.671Z,6.68
2022-10-25T14:07:48.914Z,7.13
2022-10-25T14:10:36.082Z,6.38
2022-10-25T14:13:17.315Z,7.95
2022-10-25T14:15:53.411Z,6.45
2022-10-25T14:18:24.138Z,6.55
2022-10-25T14:20:55.449Z,6.43
2022-10-25T14:23:29.881Z,6.05
2022-10-25T14:25:59.521Z,6.53
2022-10-25T14:28:29.253Z,6.32
2022-10-25T14:30:59.242Z,7.78
2022-10-25T14:33:31.328Z,6.90
2022-10-25T14:36:09.906Z,7.00
2022-10-25T14:38:52.352Z,9.05
2022-10-25T14:41:25.747Z,6.55
2022-10-25T14:43:54.309Z,6.45
2022-10-25T14:46:24.157Z,6.53
2022-10-25T14:48:56.057Z,6.78
2022-10-25T14:51:28.069Z,7.13
2022-10-25T14:54:01.348Z,7.32
2022-10-25T14:56:32.917Z,6.75
2022-10-25T14:59:02.273Z,7.55
2022-10-25T15:01:30.540Z,6.43
2022-10-25T15:04:01.254Z,7.32
2022-10-25T15:06:32.418Z,7.53
2022-10-25T15:09:40.800Z,7.20
2022-10-25T15:12:08.355Z,7.30
2022-10-25T15:14:36.815Z,7.50
2022-10-25T15:17:06.262Z,8.43
2022-10-25T15:19:34.173Z,7.90
2022-10-25T15:22:10.784Z,7.32
2022-10-25T15:24:48.743Z,7.82
2022-10-25T15:27:27.902Z,7.63
2022-10-25T15:29:55.869Z,6.97
2022-10-25T15:32:25.439Z,9.02
2022-10-25T15:34:55.648Z,9.00
2022-10-25T15:37:25.131Z,8.27
2022-10-25T15:39:55.749Z,7.18
2022-10-25T15:42:26.411Z,8.75
2022-10-25T15:44:54.310Z,14.23
2022-10-25T15:47:31.741Z,13.85
2022-10-25T15:50:00.671Z,10.68
2022-10-25T15:52:29.032Z,8.80
2022-10-25T15:54:58.245Z,8.10
2022-10-25T15:57:27.355Z,8.55
2022-10-25T15:59:55.349Z,9.73
2022-10-25T16:02:27.172Z,9.43
2022-10-25T16:04:55.240Z,9.52
2022-10-25T16:07:23.223Z,7.88
2022-10-25T16:09:51.060Z,7.53
2022-10-25T16:12:31.587Z,8.35
2022-10-25T16:14:59.508Z,8.70
2022-10-25T16:17:27.332Z,9.88
2022-10-25T16:19:55.155Z,9.18
2022-10-25T16:22:22.996Z,9.07
2022-10-25T16:24:50.836Z,9.30
2022-10-25T16:27:18.800Z,11.45
2022-10-25T16:29:48.122Z,11.65
2022-10-25T16:32:18.542Z,11.93
2022-10-25T16:34:46.383Z,14.70
2022-10-25T16:37:14.205Z,12.57
2022-10-25T16:39:42.064Z,12.93
2022-10-25T16:42:28.569Z,12.18
2022-10-25T16:44:58.421Z,11.35
2022-10-25T16:47:26.623Z,11.02
2022-10-25T16:49:54.675Z,10.20
2022-10-25T16:52:23.102Z,11.43
2022-10-25T16:54:50.936Z,10.60
2022-10-25T16:57:18.852Z,11.52
2022-10-25T16:59:46.723Z,10.35
2022-10-25T17:02:21.334Z,10.65
2022-10-25T17:04:50.261Z,12.02
2022-10-25T17:07:18.748Z,17.00
2022-10-25T17:09:46.676Z,13.73
2022-10-25T17:12:14.524Z,11.20
2022-10-25T17:14:42.421Z,14.68
2022-10-25T17:17:11.009Z,13.60
2022-10-25T17:19:40.279Z,12.98
2022-10-25T17:22:08.922Z,14.13
2022-10-25T17:24:37.610Z,12.82
2022-10-25T17:27:06.241Z,13.32
2022-10-25T17:29:34.275Z,12.25
2022-10-25T17:32:02.173Z,13.18
2022-10-25T17:34:32.114Z,12.15
2022-10-25T17:37:02.300Z,12.93
2022-10-25T17:39:30.598Z,13.75
2022-10-25T17:41:58.473Z,11.93
2022-10-25T17:44:26.360Z,15.88
2022-10-25T17:46:55.494Z,15.20
2022-10-25T17:49:25.164Z,15.73
2022-10-25T17:51:53.035Z,16.10
2022-10-25T17:54:22.436Z,17.23
2022-10-25T17:56:50.359Z,16.30
2022-10-25T17:59:18.242Z,15.35
2022-10-25T18:01:46.202Z,15.13
2022-10-25T18:04:14.121Z,15.48
2022-10-25T18:06:42.059Z,17.85
2022-10-25T18:09:10.874Z,17.27
2022-10-25T18:11:40.219Z,17.77
2022-10-25T18:14:08.101Z,15.82
2022-10-25T18:16:35.940Z,15.80
2022-10-25T18:19:05.830Z,16.15
2022-10-25T18:21:34.740Z,15.27
2022-10-25T18:24:04.901Z,13.13
2022-10-25T18:26:33.801Z,11.38
2022-10-25T18:29:03.070Z,11.00
2022-10-25T18:31:31.097Z,10.33
2022-10-25T18:34:03.381Z,9.87
2022-10-25T18:36:32.103Z,9.33
2022-10-25T18:39:00.025Z,8.20
2022-10-25T18:41:30.149Z,7.87
2022-10-25T18:43:58.805Z,8.70
2022-10-25T18:46:30.739Z,8.03
2022-10-25T18:48:58.835Z,7.53
2022-10-25T18:51:28.911Z,7.90
2022-10-25T18:53:57.817Z,6.83
2022-10-25T18:56:26.212Z,7.50
2022-10-25T18:58:56.763Z,7.10
2022-10-25T19:01:27.921Z,8.27
2022-10-25T19:03:58.199Z,9.53
2022-10-25T19:06:26.416Z,7.83
2022-10-25T19:08:54.608Z,6.80
2022-10-25T19:11:22.511Z,7.53
2022-10-25T19:13:54.178Z,6.70
2022-10-25T19:16:22.226Z,10.70
2022-10-25T19:18:50.135Z,7.87
2022-10-25T19:21:19.695Z,7.87
2022-10-25T19:23:48.435Z,8.30
2022-10-25T19:26:19.458Z,7.57
2022-10-25T19:28:47.672Z,6.70
2022-10-25T19:31:17.916Z,7.33
2022-10-25T19:33:47.044Z,7.13
2022-10-25T19:36:15.107Z,7.13
2022-10-25T19:38:45.294Z,8.00
2022-10-25T19:41:17.135Z,7.70
2022-10-25T19:43:45.116Z,7.07
2022-10-25T19:46:14.089Z,7.23
2022-10-25T19:48:42.045Z,7.63
2022-10-25T19:51:12.097Z,6.90
2022-10-25T19:53:39.995Z,7.03
2022-10-25T19:56:11.421Z,7.23
2022-10-25T19:58:39.552Z,7.73
2022-10-25T20:01:10.229Z,7.27
2022-10-25T20:03:39.591Z,7.50
2022-10-25T20:06:09.983Z,6.93
2022-10-25T20:08:39.875Z,7.20
2022-10-25T20:11:11.596Z,7.47
2022-10-25T20:13:39.720Z,7.67
2022-10-25T20:16:08.699Z,7.80
2022-10-25T20:18:38.693Z,7.77
2022-10-25T20:21:08.859Z,8.20
2022-10-25T20:23:37.020Z,7.50
2022-10-25T20:26:14.335Z,15.33
2022-10-25T20:28:42.527Z,7.60
2022-10-25T20:31:11.258Z,7.53
2022-10-25T20:33:40.267Z,7.10
2022-10-25T20:36:11.513Z,7.23
2022-10-25T20:38:39.719Z,7.13
2022-10-25T20:41:10.270Z,6.70
2022-10-25T20:43:40.346Z,7.23
2022-10-25T20:46:09.400Z,8.00
2022-10-25T20:48:37.680Z,8.20
2022-10-25T20:51:07.811Z,7.40
2022-10-25T20:53:36.963Z,7.63
2022-10-25T20:56:05.268Z,7.27
2022-10-25T20:58:34.668Z,7.80
2022-10-25T21:01:04.192Z,7.93
2022-10-25T21:03:33.191Z,7.43
2022-10-25T21:06:03.489Z,7.70
2022-10-25T21:08:32.204Z,8.07
2022-10-25T21:11:01.992Z,7.77
2022-10-25T21:13:32.374Z,7.93
2022-10-25T21:16:00.547Z,8.33
2022-10-25T21:18:30.160Z,7.73
2022-10-25T21:21:01.747Z,7.93
2022-10-25T21:23:29.624Z,7.30
2022-10-25T21:26:00.738Z,7.60
2022-10-25T21:28:32.408Z,7.87
2022-10-25T21:31:02.117Z,7.60
2022-10-25T21:33:31.334Z,8.70
2022-10-25T21:36:03.776Z,7.73
2022-10-25T21:38:31.684Z,8.43
2022-10-25T21:41:06.748Z,7.33
2022-10-25T21:43:34.625Z,7.90
2022-10-25T21:46:05.930Z,8.10
2022-10-25T21:48:35.620Z,7.90
2022-10-25T21:51:03.471Z,9.20
2022-10-25T21:53:31.628Z,8.13
2022-10-25T21:56:11.530Z,8.70
2022-10-25T21:58:39.853Z,7.80
2022-10-25T22:01:09.324Z,7.80
2022-10-25T22:03:38.901Z,8.93
2022-10-25T22:06:07.776Z,8.50
2022-10-25T22:08:35.841Z,7.73
2022-10-25T22:11:06.955Z,7.60
2022-10-25T22:13:35.217Z,8.43
2022-10-25T22:16:05.651Z,7.97
2022-10-25T22:18:34.048Z,8.40
2022-10-25T22:21:05.941Z,8.50
2022-10-25T22:23:34.476Z,7.80
2022-10-25T22:26:03.593Z,7.77
2022-10-25T22:28:33.331Z,7.70
2022-10-25T22:31:06.515Z,8.00
2022-10-25T22:33:34.962Z,8.07
2022-10-25T22:36:05.991Z,8.50
2022-10-25T22:38:34.326Z,8.23
2022-10-25T22:41:03.702Z,7.87
2022-10-25T22:43:32.221Z,8.23
2022-10-25T22:46:02.271Z,7.70
2022-10-25T22:48:34.001Z,8.13
2022-10-25T22:51:02.321Z,8.37
2022-10-25T22:53:31.681Z,8.53
2022-10-25T22:56:01.852Z,7.50
2022-10-25T22:58:32.465Z,8.00
2022-10-25T23:03:36.986Z,7.80
2022-10-25T23:06:06.140Z,8.50
2022-10-25T23:08:35.544Z,7.83
2022-10-25T23:11:05.836Z,7.90
2022-10-25T23:13:36.322Z,7.50
2022-10-25T23:16:05.000Z,7.43
2022-10-25T23:18:33.381Z,8.27
2022-10-25T23:21:03.169Z,7.70
2022-10-25T23:23:38.120Z,7.17
2022-10-25T23:28:39.700Z,7.77
2022-10-25T23:31:09.343Z,7.43
2022-10-25T23:33:37.414Z,7.80
2022-10-25T23:36:10.226Z,8.33
2022-10-25T23:38:39.458Z,7.50
2022-10-25T23:41:07.645Z,7.50
2022-10-25T23:43:35.651Z,7.50
2022-10-25T23:46:03.612Z,7.40
2022-10-25T23:48:31.970Z,8.00
2022-10-25T23:53:34.999Z,8.13
2022-10-25T23:56:06.100Z,6.87
2022-10-25T23:58:33.999Z,7.33
